sensor_id;sensor_type;location;lat;lon;timestamp;pressure;altitude;pressure_sealevel;temperature;humidity
53526;BME280;40551;50.478;19.378;2023-08-12T00:01:08;98591.81;;;12.76;80.89
53526;BME280;40551;50.478;19.378;2023-08-12T00:03:40;98595.14;;;12.70;81.02
53526;BME280;40551;50.478;19.378;2023-08-12T00:06:12;98595.20;;;12.64;81.00
53526;BME280;40551;50.478;19.378;2023-08-12T00:08:43;98595.61;;;12.62;81.38
53526;BME280;40551;50.478;19.378;2023-08-12T00:11:14;98595.05;;;12.58;81.46
53526;BME280;40551;50.478;19.378;2023-08-12T00:13:46;98595.08;;;12.56;81.34
53526;BME280;40551;50.478;19.378;2023-08-12T00:16:16;98589.06;;;12.53;81.56
53526;BME280;40551;50.478;19.378;2023-08-12T00:18:48;98589.42;;;12.49;81.57
53526;BME280;40551;50.478;19.378;2023-08-12T00:21:19;98584.86;;;12.49;81.79
53526;BME280;40551;50.478;19.378;2023-08-12T00:23:51;98581.56;;;12.49;81.51
53526;BME280;40551;50.478;19.378;2023-08-12T00:26:23;98580.74;;;12.47;81.44
53526;BME280;40551;50.478;19.378;2023-08-12T00:28:54;98583.97;;;12.43;81.50
53526;BME280;40551;50.478;19.378;2023-08-12T00:31:26;98590.86;;;12.44;81.50
53526;BME280;40551;50.478;19.378;2023-08-12T00:33:58;98586.78;;;12.42;81.53
53526;BME280;40551;50.478;19.378;2023-08-12T00:36:30;98585.77;;;12.38;81.51
53526;BME280;40551;50.478;19.378;2023-08-12T00:39:02;98585.65;;;12.35;81.48
53526;BME280;40551;50.478;19.378;2023-08-12T00:41:34;98584.80;;;12.31;81.46
53526;BME280;40551;50.478;19.378;2023-08-12T00:44:06;98586.23;;;12.29;81.46
53526;BME280;40551;50.478;19.378;2023-08-12T00:46:40;98586.33;;;12.23;81.50
53526;BME280;40551;50.478;19.378;2023-08-12T00:49:12;98583.34;;;12.19;81.36
53526;BME280;40551;50.478;19.378;2023-08-12T00:51:45;98580.30;;;12.16;81.47
53526;BME280;40551;50.478;19.378;2023-08-12T00:54:18;98576.86;;;12.14;81.43
53526;BME280;40551;50.478;19.378;2023-08-12T00:56:50;98569.95;;;12.11;81.40
53526;BME280;40551;50.478;19.378;2023-08-12T00:59:24;98571.27;;;12.10;81.45
53526;BME280;40551;50.478;19.378;2023-08-12T01:01:56;98569.95;;;12.09;81.76
53526;BME280;40551;50.478;19.378;2023-08-12T01:04:28;98570.69;;;12.08;81.61
53526;BME280;40551;50.478;19.378;2023-08-12T01:07:01;98572.38;;;12.07;81.55
53526;BME280;40551;50.478;19.378;2023-08-12T01:09:34;98574.18;;;12.04;81.50
53526;BME280;40551;50.478;19.378;2023-08-12T01:12:09;98569.77;;;12.01;81.45
53526;BME280;40551;50.478;19.378;2023-08-12T01:14:48;98573.77;;;11.98;81.47
53526;BME280;40551;50.478;19.378;2023-08-12T01:17:23;98570.58;;;11.95;81.45
53526;BME280;40551;50.478;19.378;2023-08-12T01:19:55;98573.83;;;11.93;81.54
53526;BME280;40551;50.478;19.378;2023-08-12T01:22:28;98575.49;;;11.92;81.65
53526;BME280;40551;50.478;19.378;2023-08-12T01:25:03;98573.75;;;11.90;81.37
53526;BME280;40551;50.478;19.378;2023-08-12T01:27:35;98580.95;;;11.87;81.50
53526;BME280;40551;50.478;19.378;2023-08-12T01:30:09;98582.95;;;11.84;81.27
53526;BME280;40551;50.478;19.378;2023-08-12T01:32:45;98578.66;;;11.81;81.42
53526;BME280;40551;50.478;19.378;2023-08-12T01:35:23;98578.19;;;11.78;81.32
53526;BME280;40551;50.478;19.378;2023-08-12T01:37:58;98574.80;;;11.75;81.39
53526;BME280;40551;50.478;19.378;2023-08-12T01:40:32;98577.80;;;11.70;81.56
53526;BME280;40551;50.478;19.378;2023-08-12T01:43:05;98576.28;;;11.67;81.75
53526;BME280;40551;50.478;19.378;2023-08-12T01:45:39;98574.30;;;11.64;81.64
53526;BME280;40551;50.478;19.378;2023-08-12T01:48:14;98580.58;;;11.63;81.78
53526;BME280;40551;50.478;19.378;2023-08-12T01:50:44;98585.58;;;11.60;81.58
53526;BME280;40551;50.478;19.378;2023-08-12T01:53:18;98583.01;;;11.55;81.75
53526;BME280;40551;50.478;19.378;2023-08-12T01:55:49;98581.23;;;11.53;81.86
53526;BME280;40551;50.478;19.378;2023-08-12T01:58:21;98582.48;;;11.51;81.76
53526;BME280;40551;50.478;19.378;2023-08-12T02:00:52;98585.04;;;11.49;81.82
53526;BME280;40551;50.478;19.378;2023-08-12T02:03:24;98586.23;;;11.47;81.71
53526;BME280;40551;50.478;19.378;2023-08-12T02:05:56;98589.39;;;11.45;81.74
53526;BME280;40551;50.478;19.378;2023-08-12T02:08:27;98590.27;;;11.43;81.75
53526;BME280;40551;50.478;19.378;2023-08-12T02:10:59;98591.13;;;11.41;81.66
53526;BME280;40551;50.478;19.378;2023-08-12T02:13:30;98588.80;;;11.39;81.95
53526;BME280;40551;50.478;19.378;2023-08-12T02:16:03;98591.34;;;11.38;82.10
53526;BME280;40551;50.478;19.378;2023-08-12T02:18:35;98592.93;;;11.35;81.74
53526;BME280;40551;50.478;19.378;2023-08-12T02:21:07;98589.36;;;11.32;81.66
53526;BME280;40551;50.478;19.378;2023-08-12T02:23:38;98594.70;;;11.28;81.62
53526;BME280;40551;50.478;19.378;2023-08-12T02:26:10;98598.30;;;11.24;81.61
53526;BME280;40551;50.478;19.378;2023-08-12T02:28:40;98595.61;;;11.21;81.82
53526;BME280;40551;50.478;19.378;2023-08-12T02:31:12;98593.74;;;11.18;81.80
53526;BME280;40551;50.478;19.378;2023-08-12T02:33:44;98594.24;;;11.16;81.72
53526;BME280;40551;50.478;19.378;2023-08-12T02:36:15;98595.34;;;11.13;81.71
53526;BME280;40551;50.478;19.378;2023-08-12T02:38:47;98595.94;;;11.10;81.64
53526;BME280;40551;50.478;19.378;2023-08-12T02:41:19;98597.20;;;11.07;81.91
53526;BME280;40551;50.478;19.378;2023-08-12T02:43:50;98601.34;;;11.05;81.91
53526;BME280;40551;50.478;19.378;2023-08-12T02:46:22;98603.56;;;11.04;82.02
53526;BME280;40551;50.478;19.378;2023-08-12T02:48:55;98599.84;;;11.02;81.94
53526;BME280;40551;50.478;19.378;2023-08-12T02:51:25;98599.61;;;11.01;82.03
53526;BME280;40551;50.478;19.378;2023-08-12T02:53:57;98601.17;;;10.99;81.96
53526;BME280;40551;50.478;19.378;2023-08-12T02:56:29;98599.00;;;10.98;81.95
53526;BME280;40551;50.478;19.378;2023-08-12T02:58:59;98598.21;;;10.96;82.06
53526;BME280;40551;50.478;19.378;2023-08-12T03:01:31;98597.52;;;10.94;81.89
53526;BME280;40551;50.478;19.378;2023-08-12T03:04:03;98595.05;;;10.93;82.18
53526;BME280;40551;50.478;19.378;2023-08-12T03:06:35;98597.23;;;10.91;82.02
53526;BME280;40551;50.478;19.378;2023-08-12T03:09:08;98596.70;;;10.89;81.91
53526;BME280;40551;50.478;19.378;2023-08-12T03:11:39;98596.98;;;10.87;81.98
53526;BME280;40551;50.478;19.378;2023-08-12T03:14:12;98597.15;;;10.85;82.00
53526;BME280;40551;50.478;19.378;2023-08-12T03:16:44;98597.58;;;10.84;81.90
53526;BME280;40551;50.478;19.378;2023-08-12T03:19:14;98594.36;;;10.81;82.05
53526;BME280;40551;50.478;19.378;2023-08-12T03:21:46;98594.48;;;10.77;82.02
53526;BME280;40551;50.478;19.378;2023-08-12T03:24:18;98590.93;;;10.76;82.20
53526;BME280;40551;50.478;19.378;2023-08-12T03:26:50;98587.79;;;10.74;82.35
53526;BME280;40551;50.478;19.378;2023-08-12T03:29:22;98585.86;;;10.77;82.17
53526;BME280;40551;50.478;19.378;2023-08-12T03:31:55;98582.98;;;10.76;82.32
53526;BME280;40551;50.478;19.378;2023-08-12T03:34:29;98580.86;;;10.74;82.08
53526;BME280;40551;50.478;19.378;2023-08-12T03:37:01;98583.52;;;10.71;82.10
53526;BME280;40551;50.478;19.378;2023-08-12T03:39:34;98585.89;;;10.70;82.22
53526;BME280;40551;50.478;19.378;2023-08-12T03:42:06;98585.02;;;10.70;82.25
53526;BME280;40551;50.478;19.378;2023-08-12T03:44:38;98584.67;;;10.69;82.48
53526;BME280;40551;50.478;19.378;2023-08-12T03:47:10;98582.73;;;10.70;82.53
53526;BME280;40551;50.478;19.378;2023-08-12T03:49:42;98580.14;;;10.72;82.39
53526;BME280;40551;50.478;19.378;2023-08-12T03:52:13;98582.65;;;10.76;82.56
53526;BME280;40551;50.478;19.378;2023-08-12T03:54:45;98583.59;;;10.77;82.49
53526;BME280;40551;50.478;19.378;2023-08-12T03:57:17;98581.23;;;10.78;82.48
53526;BME280;40551;50.478;19.378;2023-08-12T03:59:51;98582.69;;;10.79;82.41
53526;BME280;40551;50.478;19.378;2023-08-12T04:02:23;98583.46;;;10.81;82.52
53526;BME280;40551;50.478;19.378;2023-08-12T04:04:54;98587.10;;;10.83;82.80
53526;BME280;40551;50.478;19.378;2023-08-12T04:07:26;98591.23;;;10.85;82.77
53526;BME280;40551;50.478;19.378;2023-08-12T04:09:58;98597.91;;;10.89;82.89
53526;BME280;40551;50.478;19.378;2023-08-12T04:12:30;98593.15;;;10.92;82.98
53526;BME280;40551;50.478;19.378;2023-08-12T04:15:00;98593.79;;;10.98;83.08
53526;BME280;40551;50.478;19.378;2023-08-12T04:17:34;98594.42;;;11.01;83.10
53526;BME280;40551;50.478;19.378;2023-08-12T04:20:09;98596.13;;;11.05;83.21
53526;BME280;40551;50.478;19.378;2023-08-12T04:22:41;98595.14;;;11.11;83.14
53526;BME280;40551;50.478;19.378;2023-08-12T04:25:12;98594.13;;;11.16;83.32
53526;BME280;40551;50.478;19.378;2023-08-12T04:27:44;98594.68;;;11.19;83.41
53526;BME280;40551;50.478;19.378;2023-08-12T04:30:19;98593.73;;;11.23;83.34
53526;BME280;40551;50.478;19.378;2023-08-12T04:32:51;98593.53;;;11.25;83.44
53526;BME280;40551;50.478;19.378;2023-08-12T04:35:22;98594.99;;;11.29;83.54
53526;BME280;40551;50.478;19.378;2023-08-12T04:37:54;98593.52;;;11.34;83.70
53526;BME280;40551;50.478;19.378;2023-08-12T04:40:29;98596.42;;;11.44;83.73
53526;BME280;40551;50.478;19.378;2023-08-12T04:43:01;98599.72;;;11.54;84.02
53526;BME280;40551;50.478;19.378;2023-08-12T04:45:33;98597.70;;;11.67;84.02
53526;BME280;40551;50.478;19.378;2023-08-12T04:48:07;98595.67;;;11.79;84.02
53526;BME280;40551;50.478;19.378;2023-08-12T04:50:41;98594.56;;;11.91;83.99
53526;BME280;40551;50.478;19.378;2023-08-12T04:53:13;98588.27;;;12.04;84.26
53526;BME280;40551;50.478;19.378;2023-08-12T04:55:43;98584.70;;;12.20;84.52
53526;BME280;40551;50.478;19.378;2023-08-12T04:58:17;98588.25;;;12.40;84.69
53526;BME280;40551;50.478;19.378;2023-08-12T05:00:50;98584.91;;;12.61;84.53
53526;BME280;40551;50.478;19.378;2023-08-12T05:03:24;98584.67;;;12.82;84.84
53526;BME280;40551;50.478;19.378;2023-08-12T05:05:56;98590.17;;;13.03;84.62
53526;BME280;40551;50.478;19.378;2023-08-12T05:08:29;98591.87;;;13.22;84.44
53526;BME280;40551;50.478;19.378;2023-08-12T05:11:01;98591.25;;;13.39;84.51
53526;BME280;40551;50.478;19.378;2023-08-12T05:13:33;98591.06;;;13.57;84.41
53526;BME280;40551;50.478;19.378;2023-08-12T05:16:05;98592.34;;;13.74;84.41
53526;BME280;40551;50.478;19.378;2023-08-12T05:18:37;98592.95;;;13.93;84.30
53526;BME280;40551;50.478;19.378;2023-08-12T05:21:09;98595.34;;;14.11;84.07
53526;BME280;40551;50.478;19.378;2023-08-12T05:23:41;98596.48;;;14.29;83.92
53526;BME280;40551;50.478;19.378;2023-08-12T05:26:12;98594.45;;;14.47;83.89
53526;BME280;40551;50.478;19.378;2023-08-12T05:28:44;98596.89;;;14.66;83.73
53526;BME280;40551;50.478;19.378;2023-08-12T05:31:16;98594.14;;;14.84;83.40
53526;BME280;40551;50.478;19.378;2023-08-12T05:33:47;98595.27;;;15.01;83.14
53526;BME280;40551;50.478;19.378;2023-08-12T05:36:19;98595.71;;;15.14;82.65
53526;BME280;40551;50.478;19.378;2023-08-12T05:38:51;98598.98;;;15.30;82.86
53526;BME280;40551;50.478;19.378;2023-08-12T05:41:23;98601.27;;;15.47;83.00
53526;BME280;40551;50.478;19.378;2023-08-12T05:43:54;98597.77;;;15.66;82.71
53526;BME280;40551;50.478;19.378;2023-08-12T05:46:26;98598.33;;;15.85;82.73
53526;BME280;40551;50.478;19.378;2023-08-12T05:48:58;98595.73;;;16.05;82.55
53526;BME280;40551;50.478;19.378;2023-08-12T05:51:29;98589.08;;;16.21;82.15
53526;BME280;40551;50.478;19.378;2023-08-12T05:54:01;98584.84;;;16.35;81.74
53526;BME280;40551;50.478;19.378;2023-08-12T05:56:32;98588.15;;;16.49;81.65
53526;BME280;40551;50.478;19.378;2023-08-12T05:59:05;98585.25;;;16.65;81.55
53526;BME280;40551;50.478;19.378;2023-08-12T06:01:36;98583.63;;;16.82;81.64
53526;BME280;40551;50.478;19.378;2023-08-12T06:04:08;98581.54;;;16.97;81.51
53526;BME280;40551;50.478;19.378;2023-08-12T06:06:40;98582.54;;;17.11;81.31
53526;BME280;40551;50.478;19.378;2023-08-12T06:09:12;98585.80;;;17.25;81.13
53526;BME280;40551;50.478;19.378;2023-08-12T06:11:43;98588.34;;;17.36;80.71
53526;BME280;40551;50.478;19.378;2023-08-12T06:14:15;98583.26;;;17.40;79.97
53526;BME280;40551;50.478;19.378;2023-08-12T06:16:46;98581.30;;;17.45;79.86
53526;BME280;40551;50.478;19.378;2023-08-12T06:19:18;98579.30;;;17.50;79.85
53526;BME280;40551;50.478;19.378;2023-08-12T06:21:50;98580.23;;;17.60;79.85
53526;BME280;40551;50.478;19.378;2023-08-12T06:24:21;98583.55;;;17.72;79.89
53526;BME280;40551;50.478;19.378;2023-08-12T06:26:53;98584.18;;;17.89;80.31
53526;BME280;40551;50.478;19.378;2023-08-12T06:29:25;98587.87;;;18.08;80.38
53526;BME280;40551;50.478;19.378;2023-08-12T06:31:57;98586.16;;;18.26;80.47
53526;BME280;40551;50.478;19.378;2023-08-12T06:34:28;98586.94;;;18.44;80.07
53526;BME280;40551;50.478;19.378;2023-08-12T06:37:00;98588.30;;;18.60;79.77
53526;BME280;40551;50.478;19.378;2023-08-12T06:39:31;98589.53;;;18.75;79.14
53526;BME280;40551;50.478;19.378;2023-08-12T06:42:06;98591.22;;;18.88;78.43
53526;BME280;40551;50.478;19.378;2023-08-12T06:44:38;98591.81;;;19.02;78.13
53526;BME280;40551;50.478;19.378;2023-08-12T06:47:09;98585.98;;;19.15;78.06
53526;BME280;40551;50.478;19.378;2023-08-12T06:49:41;98585.42;;;19.29;77.77
53526;BME280;40551;50.478;19.378;2023-08-12T06:52:13;98585.10;;;19.46;77.61
53526;BME280;40551;50.478;19.378;2023-08-12T06:54:44;98580.41;;;19.64;77.55
53526;BME280;40551;50.478;19.378;2023-08-12T06:57:16;98580.67;;;19.80;77.17
53526;BME280;40551;50.478;19.378;2023-08-12T06:59:48;98575.90;;;19.96;76.88
53526;BME280;40551;50.478;19.378;2023-08-12T07:02:20;98573.31;;;20.09;76.39
53526;BME280;40551;50.478;19.378;2023-08-12T07:04:51;98576.10;;;20.26;76.22
53526;BME280;40551;50.478;19.378;2023-08-12T07:07:23;98580.81;;;20.40;76.08
53526;BME280;40551;50.478;19.378;2023-08-12T07:09:55;98575.74;;;20.52;74.94
53526;BME280;40551;50.478;19.378;2023-08-12T07:12:27;98573.98;;;20.67;74.16
53526;BME280;40551;50.478;19.378;2023-08-12T07:14:58;98576.85;;;20.80;73.32
53526;BME280;40551;50.478;19.378;2023-08-12T07:17:30;98578.36;;;20.97;73.07
53526;BME280;40551;50.478;19.378;2023-08-12T07:20:02;98581.16;;;21.12;72.36
53526;BME280;40551;50.478;19.378;2023-08-12T07:22:34;98585.86;;;21.27;72.01
53526;BME280;40551;50.478;19.378;2023-08-12T07:25:08;98585.04;;;21.41;71.17
53526;BME280;40551;50.478;19.378;2023-08-12T07:27:39;98580.89;;;21.52;69.87
53526;BME280;40551;50.478;19.378;2023-08-12T07:30:12;98583.64;;;21.61;69.12
53526;BME280;40551;50.478;19.378;2023-08-12T07:32:44;98581.49;;;21.71;69.32
53526;BME280;40551;50.478;19.378;2023-08-12T07:35:16;98575.87;;;21.84;68.67
53526;BME280;40551;50.478;19.378;2023-08-12T07:37:47;98578.75;;;21.95;67.77
53526;BME280;40551;50.478;19.378;2023-08-12T07:40:19;98572.66;;;22.04;67.49
53526;BME280;40551;50.478;19.378;2023-08-12T07:42:51;98569.92;;;22.12;66.57
53526;BME280;40551;50.478;19.378;2023-08-12T07:45:23;98570.15;;;22.19;65.79
53526;BME280;40551;50.478;19.378;2023-08-12T07:47:55;98567.83;;;22.27;66.04
53526;BME280;40551;50.478;19.378;2023-08-12T07:50:26;98564.86;;;22.36;65.96
53526;BME280;40551;50.478;19.378;2023-08-12T07:52:58;98563.41;;;22.45;66.82
53526;BME280;40551;50.478;19.378;2023-08-12T07:55:30;98559.29;;;22.56;66.55
53526;BME280;40551;50.478;19.378;2023-08-12T07:58:02;98558.33;;;22.64;65.73
53526;BME280;40551;50.478;19.378;2023-08-12T08:00:35;98557.98;;;22.68;64.63
53526;BME280;40551;50.478;19.378;2023-08-12T08:03:07;98558.02;;;22.69;63.90
53526;BME280;40551;50.478;19.378;2023-08-12T08:05:42;98555.28;;;22.70;63.38
53526;BME280;40551;50.478;19.378;2023-08-12T08:08:16;98552.02;;;22.74;63.65
53526;BME280;40551;50.478;19.378;2023-08-12T08:10:47;98551.15;;;22.81;64.14
53526;BME280;40551;50.478;19.378;2023-08-12T08:13:19;98550.27;;;22.87;63.07
53526;BME280;40551;50.478;19.378;2023-08-12T08:15:50;98549.73;;;22.91;62.64
53526;BME280;40551;50.478;19.378;2023-08-12T08:18:23;98550.98;;;22.93;61.44
53526;BME280;40551;50.478;19.378;2023-08-12T08:20:54;98549.48;;;22.94;60.81
53526;BME280;40551;50.478;19.378;2023-08-12T08:23:26;98552.76;;;22.97;60.93
53526;BME280;40551;50.478;19.378;2023-08-12T08:25:58;98554.52;;;22.98;60.05
53526;BME280;40551;50.478;19.378;2023-08-12T08:28:29;98560.04;;;22.98;60.61
53526;BME280;40551;50.478;19.378;2023-08-12T08:31:01;98558.42;;;22.96;59.72
53526;BME280;40551;50.478;19.378;2023-08-12T08:33:33;98565.15;;;23.00;59.84
53526;BME280;40551;50.478;19.378;2023-08-12T08:36:05;98558.81;;;22.95;59.97
53526;BME280;40551;50.478;19.378;2023-08-12T08:38:37;98558.67;;;22.93;59.05
53526;BME280;40551;50.478;19.378;2023-08-12T08:41:10;98558.08;;;22.98;59.17
53526;BME280;40551;50.478;19.378;2023-08-12T08:43:43;98557.73;;;23.06;59.18
53526;BME280;40551;50.478;19.378;2023-08-12T08:46:16;98553.23;;;23.15;60.51
53526;BME280;40551;50.478;19.378;2023-08-12T08:48:48;98560.22;;;23.25;61.49
53526;BME280;40551;50.478;19.378;2023-08-12T08:51:21;98559.33;;;23.30;60.65
53526;BME280;40551;50.478;19.378;2023-08-12T08:53:55;98555.00;;;23.31;60.19
53526;BME280;40551;50.478;19.378;2023-08-12T08:56:33;98558.52;;;23.38;59.94
53526;BME280;40551;50.478;19.378;2023-08-12T08:59:18;98553.65;;;23.43;58.42
53526;BME280;40551;50.478;19.378;2023-08-12T09:01:52;98554.64;;;23.46;58.43
53526;BME280;40551;50.478;19.378;2023-08-12T09:04:30;98554.66;;;23.53;58.31
53526;BME280;40551;50.478;19.378;2023-08-12T09:07:03;98551.25;;;23.61;58.28
53526;BME280;40551;50.478;19.378;2023-08-12T09:09:35;98550.64;;;23.67;57.31
53526;BME280;40551;50.478;19.378;2023-08-12T09:12:09;98546.95;;;23.73;58.39
53526;BME280;40551;50.478;19.378;2023-08-12T09:14:42;98549.17;;;23.80;58.34
53526;BME280;40551;50.478;19.378;2023-08-12T09:17:14;98543.05;;;23.86;57.25
53526;BME280;40551;50.478;19.378;2023-08-12T09:19:46;98536.25;;;23.93;57.30
53526;BME280;40551;50.478;19.378;2023-08-12T09:22:18;98534.59;;;24.02;57.62
53526;BME280;40551;50.478;19.378;2023-08-12T09:24:57;98528.83;;;24.06;56.87
53526;BME280;40551;50.478;19.378;2023-08-12T09:27:31;98531.39;;;24.12;56.91
53526;BME280;40551;50.478;19.378;2023-08-12T09:30:04;98525.90;;;24.16;56.84
53526;BME280;40551;50.478;19.378;2023-08-12T09:32:36;98525.52;;;24.19;55.98
53526;BME280;40551;50.478;19.378;2023-08-12T09:35:16;98524.14;;;24.22;55.37
53526;BME280;40551;50.478;19.378;2023-08-12T09:37:50;98520.78;;;24.27;55.63
53526;BME280;40551;50.478;19.378;2023-08-12T09:40:23;98516.85;;;24.31;55.50
53526;BME280;40551;50.478;19.378;2023-08-12T09:42:56;98516.34;;;24.36;55.13
53526;BME280;40551;50.478;19.378;2023-08-12T09:45:29;98513.34;;;24.41;54.96
53526;BME280;40551;50.478;19.378;2023-08-12T09:48:02;98509.56;;;24.43;55.10
53526;BME280;40551;50.478;19.378;2023-08-12T09:50:35;98504.27;;;24.50;55.35
53526;BME280;40551;50.478;19.378;2023-08-12T09:53:07;98504.48;;;24.52;54.47
53526;BME280;40551;50.478;19.378;2023-08-12T09:55:41;98502.88;;;24.50;54.50
53526;BME280;40551;50.478;19.378;2023-08-12T09:58:18;98498.94;;;24.53;55.45
53526;BME280;40551;50.478;19.378;2023-08-12T10:00:50;98496.45;;;24.56;54.35
53526;BME280;40551;50.478;19.378;2023-08-12T10:03:23;98495.89;;;24.62;55.29
53526;BME280;40551;50.478;19.378;2023-08-12T10:05:55;98497.34;;;24.68;54.80
53526;BME280;40551;50.478;19.378;2023-08-12T10:08:28;98494.80;;;24.71;54.13
53526;BME280;40551;50.478;19.378;2023-08-12T10:11:00;98492.91;;;24.73;53.60
53526;BME280;40551;50.478;19.378;2023-08-12T10:13:42;98494.33;;;24.77;52.83
53526;BME280;40551;50.478;19.378;2023-08-12T10:16:14;98484.80;;;24.81;52.76
53526;BME280;40551;50.478;19.378;2023-08-12T10:18:47;98486.38;;;24.87;52.56
53526;BME280;40551;50.478;19.378;2023-08-12T10:21:19;98484.02;;;24.91;53.17
53526;BME280;40551;50.478;19.378;2023-08-12T10:23:53;98481.10;;;24.93;53.89
53526;BME280;40551;50.478;19.378;2023-08-12T10:26:25;98480.36;;;24.95;53.24
53526;BME280;40551;50.478;19.378;2023-08-12T10:28:57;98483.23;;;25.03;53.55
53526;BME280;40551;50.478;19.378;2023-08-12T10:31:30;98480.52;;;25.15;53.18
53526;BME280;40551;50.478;19.378;2023-08-12T10:34:02;98477.33;;;25.23;52.34
53526;BME280;40551;50.478;19.378;2023-08-12T10:36:34;98472.77;;;25.29;53.55
53526;BME280;40551;50.478;19.378;2023-08-12T10:39:18;98468.73;;;25.33;51.83
53526;BME280;40551;50.478;19.378;2023-08-12T10:41:55;98470.36;;;25.36;51.41
53526;BME280;40551;50.478;19.378;2023-08-12T10:44:38;98473.36;;;25.41;52.74
53526;BME280;40551;50.478;19.378;2023-08-12T10:47:11;98472.35;;;25.51;52.43
53526;BME280;40551;50.478;19.378;2023-08-12T10:49:49;98469.17;;;25.59;51.87
53526;BME280;40551;50.478;19.378;2023-08-12T10:52:31;98468.34;;;25.61;51.96
53526;BME280;40551;50.478;19.378;2023-08-12T10:55:19;98469.60;;;25.67;50.61
53526;BME280;40551;50.478;19.378;2023-08-12T10:57:52;98467.80;;;25.72;50.06
53526;BME280;40551;50.478;19.378;2023-08-12T11:00:27;98465.47;;;25.77;50.11
53526;BME280;40551;50.478;19.378;2023-08-12T11:03:00;98470.56;;;25.82;50.77
53526;BME280;40551;50.478;19.378;2023-08-12T11:05:38;98469.27;;;25.86;50.60
53526;BME280;40551;50.478;19.378;2023-08-12T11:08:11;98464.50;;;25.87;50.41
53526;BME280;40551;50.478;19.378;2023-08-12T11:10:44;98463.17;;;25.98;51.84
53526;BME280;40551;50.478;19.378;2023-08-12T11:13:16;98458.98;;;26.07;50.48
53526;BME280;40551;50.478;19.378;2023-08-12T11:15:49;98455.48;;;26.12;50.17
53526;BME280;40551;50.478;19.378;2023-08-12T11:18:21;98450.73;;;26.12;49.66
53526;BME280;40551;50.478;19.378;2023-08-12T11:20:53;98452.48;;;26.15;49.66
53526;BME280;40551;50.478;19.378;2023-08-12T11:23:25;98448.12;;;26.19;49.54
53526;BME280;40551;50.478;19.378;2023-08-12T11:25:57;98447.29;;;26.23;49.43
53526;BME280;40551;50.478;19.378;2023-08-12T11:28:29;98444.55;;;26.27;49.77
53526;BME280;40551;50.478;19.378;2023-08-12T11:31:01;98446.84;;;26.31;50.03
53526;BME280;40551;50.478;19.378;2023-08-12T11:33:34;98443.69;;;26.39;49.93
53526;BME280;40551;50.478;19.378;2023-08-12T11:36:07;98437.57;;;26.42;49.12
53526;BME280;40551;50.478;19.378;2023-08-12T11:38:38;98439.70;;;26.45;49.71
53526;BME280;40551;50.478;19.378;2023-08-12T11:41:10;98434.23;;;26.47;49.66
53526;BME280;40551;50.478;19.378;2023-08-12T11:43:42;98430.87;;;26.49;48.75
53526;BME280;40551;50.478;19.378;2023-08-12T11:46:16;98434.40;;;26.52;48.89
53526;BME280;40551;50.478;19.378;2023-08-12T11:48:48;98435.71;;;26.59;50.17
53526;BME280;40551;50.478;19.378;2023-08-12T11:51:21;98432.30;;;26.69;51.12
53526;BME280;40551;50.478;19.378;2023-08-12T11:53:53;98426.52;;;26.77;51.04
53526;BME280;40551;50.478;19.378;2023-08-12T11:56:25;98423.20;;;26.86;50.17
53526;BME280;40551;50.478;19.378;2023-08-12T11:58:57;98419.39;;;26.91;50.35
53526;BME280;40551;50.478;19.378;2023-08-12T12:01:29;98417.11;;;26.96;49.25
53526;BME280;40551;50.478;19.378;2023-08-12T12:04:02;98413.98;;;26.97;48.58
53526;BME280;40551;50.478;19.378;2023-08-12T12:06:37;98407.02;;;26.98;48.16
53526;BME280;40551;50.478;19.378;2023-08-12T12:09:09;98404.73;;;26.96;47.64
53526;BME280;40551;50.478;19.378;2023-08-12T12:11:42;98404.10;;;26.97;47.81
53526;BME280;40551;50.478;19.378;2023-08-12T12:14:14;98398.02;;;27.04;48.84
53526;BME280;40551;50.478;19.378;2023-08-12T12:16:47;98397.62;;;27.15;48.98
53526;BME280;40551;50.478;19.378;2023-08-12T12:19:20;98394.14;;;27.20;49.00
53526;BME280;40551;50.478;19.378;2023-08-12T12:21:53;98394.54;;;27.21;48.76
53526;BME280;40551;50.478;19.378;2023-08-12T12:24:30;98393.52;;;27.18;50.24
53526;BME280;40551;50.478;19.378;2023-08-12T12:27:01;98392.02;;;27.09;49.00
53526;BME280;40551;50.478;19.378;2023-08-12T12:29:35;98390.46;;;27.03;48.49
53526;BME280;40551;50.478;19.378;2023-08-12T12:32:07;98387.52;;;26.98;48.06
53526;BME280;40551;50.478;19.378;2023-08-12T12:34:39;98378.15;;;26.99;47.74
53526;BME280;40551;50.478;19.378;2023-08-12T12:37:11;98384.61;;;26.99;48.75
53526;BME280;40551;50.478;19.378;2023-08-12T12:39:43;98384.98;;;27.04;49.75
53526;BME280;40551;50.478;19.378;2023-08-12T12:42:15;98382.77;;;27.11;49.31
53526;BME280;40551;50.478;19.378;2023-08-12T12:44:46;98381.83;;;27.21;49.03
53526;BME280;40551;50.478;19.378;2023-08-12T12:47:18;98375.68;;;27.28;50.09
53526;BME280;40551;50.478;19.378;2023-08-12T12:49:51;98371.37;;;27.33;48.23
53526;BME280;40551;50.478;19.378;2023-08-12T12:52:23;98371.84;;;27.32;49.43
53526;BME280;40551;50.478;19.378;2023-08-12T12:54:54;98366.77;;;27.31;49.09
53526;BME280;40551;50.478;19.378;2023-08-12T12:57:28;98365.00;;;27.28;51.57
53526;BME280;40551;50.478;19.378;2023-08-12T12:59:59;98364.95;;;27.29;50.18
53526;BME280;40551;50.478;19.378;2023-08-12T13:02:31;98364.42;;;27.31;51.59
53526;BME280;40551;50.478;19.378;2023-08-12T13:05:03;98356.63;;;27.31;51.75
53526;BME280;40551;50.478;19.378;2023-08-12T13:07:35;98359.59;;;27.30;52.08
53526;BME280;40551;50.478;19.378;2023-08-12T13:10:08;98360.38;;;27.27;51.96
53526;BME280;40551;50.478;19.378;2023-08-12T13:12:40;98361.56;;;27.25;52.01
53526;BME280;40551;50.478;19.378;2023-08-12T13:15:12;98359.47;;;27.19;49.39
53526;BME280;40551;50.478;19.378;2023-08-12T13:17:44;98356.71;;;27.17;48.84